Time;durP1;ratioP1;P1;durP2;ratioP2;P2;SDS_P1;SDS_P2;PMS_P1;PMS_P2;Temp;Humidity;BMP_temperature;BMP_pressure;BME280_temperature;BME280_humidity;BME280_pressure;Samples;Min_cycle;Max_cycle;Signal;HPM_P1;HPM_P2
2022/04/14 00:00:53;;;;;;;;;;;11.90;99.90;;;;;;5074562;28;20422;-47
2022/04/14 00:03:19;;;;;;;;;;;11.90;99.90;;;;;;5075137;28;20428;-43
2022/04/14 00:05:45;;;;;;;;;;;11.90;99.90;;;;;;5074669;28;19912;-47
2022/04/14 00:08:10;;;;;;;;;;;11.90;99.90;;;;;;5074461;28;19916;-43
2022/04/14 00:10:36;;;;;;;;;;;11.90;99.90;;;;;;5074902;28;19955;-43
2022/04/14 00:13:01;;;;;;;;;;;11.90;99.90;;;;;;5074888;28;19970;-46
2022/04/14 00:15:28;;;;;;;;;;;11.90;99.90;;;;;;5074229;28;19923;-44
2022/04/14 00:17:54;;;;;;;;;;;11.90;99.90;;;;;;5074967;28;19909;-44
2022/04/14 00:20:19;;;;;;;;;;;11.90;99.90;;;;;;5074876;28;19920;-45
2022/04/14 00:22:45;;;;;;;;;;;11.90;99.90;;;;;;5074172;28;19912;-43
2022/04/14 00:25:11;;;;;;;;;;;11.90;99.90;;;;;;5074712;28;19916;-44
2022/04/14 00:27:37;;;;;;;;;;;11.90;99.90;;;;;;5074841;28;19916;-43
2022/04/14 00:30:03;;;;;;;;;;;11.80;99.90;;;;;;5074025;28;20276;-46
2022/04/14 00:32:31;;;;;;;;;;;11.80;99.90;;;;;;5074196;28;19920;-44
2022/04/14 00:34:56;;;;;;;;;;;11.80;99.90;;;;;;5073851;28;19915;-44
2022/04/14 00:37:22;;;;;;;;;;;11.70;99.90;;;;;;5074613;28;19908;-44
2022/04/14 00:39:49;;;;;;;;;;;11.80;99.90;;;;;;5074465;28;19909;-43
2022/04/14 00:42:15;;;;;;;;;;;11.70;99.90;;;;;;5073686;28;19912;-44
2022/04/14 00:44:40;;;;;;;;;;;11.70;99.90;;;;;;5074474;28;19915;-44
2022/04/14 00:47:06;;;;;;;;;;;11.70;99.90;;;;;;5074389;28;19940;-44
2022/04/14 00:49:32;;;;;;;;;;;11.60;99.90;;;;;;5073653;28;19916;-44
2022/04/14 00:52:01;;;;;;;;;;;11.60;99.90;;;;;;5074174;28;20290;-46
2022/04/14 00:54:28;;;;;;;;;;;11.60;99.90;;;;;;5074214;28;19989;-45
2022/04/14 00:56:55;;;;;;;;;;;11.60;99.90;;;;;;5073474;28;19912;-44
2022/04/14 00:59:20;;;;;;;;;;;11.60;99.90;;;;;;5074125;28;19909;-46
2022/04/14 01:01:46;;;;;;;;;;;11.50;99.90;;;;;;5074105;28;20431;-44
2022/04/14 01:04:12;;;;;;;;;;;11.50;99.90;;;;;;5073128;28;19916;-43
2022/04/14 01:06:38;;;;;;;;;;;11.40;99.90;;;;;;5073999;28;19916;-43
2022/04/14 01:09:18;;;;;;;;;;;11.40;99.90;;;;;;5073843;28;20007;-44
2022/04/14 01:11:44;;;;;;;;;;;11.30;99.90;;;;;;5073116;28;20375;-45
2022/04/14 01:14:20;;;;;;;;;;;11.30;99.90;;;;;;5073717;28;19916;-45
2022/04/14 01:16:46;;;;;;;;;;;11.30;99.90;;;;;;5073050;28;20026;-46
2022/04/14 01:19:11;;;;;;;;;;;11.20;99.90;;;;;;5072863;28;19955;-44
2022/04/14 01:21:38;;;;;;;;;;;11.20;99.90;;;;;;5073711;28;20000;-46
2022/04/14 01:24:04;;;;;;;;;;;11.20;99.90;;;;;;5073586;28;20386;-46
2022/04/14 01:26:30;;;;;;;;;;;11.30;99.90;;;;;;5073154;28;19913;-44
2022/04/14 01:28:56;;;;;;;;;;;11.30;99.90;;;;;;5073520;28;19942;-44
2022/04/14 01:31:21;;;;;;;;;;;11.30;99.90;;;;;;5072783;28;20441;-45
2022/04/14 01:33:47;;;;;;;;;;;11.30;99.90;;;;;;5073129;28;19920;-44
2022/04/14 01:36:12;;;;;;;;;;;11.30;99.90;;;;;;5073421;28;19909;-44
2022/04/14 01:38:38;;;;;;;;;;;11.30;99.90;;;;;;5072707;28;19908;-45
2022/04/14 01:41:04;;;;;;;;;;;11.30;99.90;;;;;;5073494;28;19955;-47
2022/04/14 01:43:29;;;;;;;;;;;11.30;99.90;;;;;;5073386;28;20011;-46
2022/04/14 01:45:55;;;;;;;;;;;11.20;99.90;;;;;;5072482;28;20178;-48
2022/04/14 01:48:20;;;;;;;;;;;11.30;99.90;;;;;;5073109;28;20003;-44
2022/04/14 01:50:45;;;;;;;;;;;11.20;99.90;;;;;;5073221;28;19948;-43
2022/04/14 01:53:11;;;;;;;;;;;11.20;99.90;;;;;;5072263;28;19916;-43
2022/04/14 01:55:36;;;;;;;;;;;11.20;99.90;;;;;;5073181;28;19915;-45
2022/04/14 01:58:02;;;;;;;;;;;11.20;99.90;;;;;;5073019;28;20422;-46
2022/04/14 02:00:27;;;;;;;;;;;11.30;99.90;;;;;;5072421;28;20336;-44
2022/04/14 02:02:53;;;;;;;;;;;11.20;99.90;;;;;;5072943;28;19913;-45
2022/04/14 02:05:18;;;;;;;;;;;11.20;99.90;;;;;;5072899;28;19909;-45
2022/04/14 02:07:44;;;;;;;;;;;11.10;99.90;;;;;;5072313;28;19908;-47
2022/04/14 02:10:09;;;;;;;;;;;11.10;99.90;;;;;;5072823;28;20386;-44
2022/04/14 02:12:35;;;;;;;;;;;11.10;99.90;;;;;;5072751;28;19918;-47
2022/04/14 02:15:00;;;;;;;;;;;11.10;99.90;;;;;;5072207;28;20012;-45
2022/04/14 02:17:26;;;;;;;;;;;11.00;99.90;;;;;;5071480;28;19912;-44
2022/04/14 02:19:51;;;;;;;;;;;11.00;99.90;;;;;;5072716;28;20423;-44
2022/04/14 02:22:18;;;;;;;;;;;10.90;99.90;;;;;;5071990;28;19962;-43
2022/04/14 02:24:44;;;;;;;;;;;10.90;99.90;;;;;;5072752;28;19908;-44
2022/04/14 02:27:09;;;;;;;;;;;10.80;99.90;;;;;;5072921;28;19908;-44
2022/04/14 02:29:35;;;;;;;;;;;10.70;99.90;;;;;;5071725;28;20355;-43
2022/04/14 02:32:00;;;;;;;;;;;10.80;99.90;;;;;;5072262;28;19924;-44
2022/04/14 02:34:26;;;;;;;;;;;10.70;99.90;;;;;;5072268;28;20341;-46
2022/04/14 02:36:51;;;;;;;;;;;10.60;99.90;;;;;;5072366;28;19995;-45
2022/04/14 02:39:17;;;;;;;;;;;10.60;99.90;;;;;;5072713;28;19909;-47
2022/04/14 02:41:42;;;;;;;;;;;10.60;99.90;;;;;;5071802;28;19909;-43
2022/04/14 02:44:07;;;;;;;;;;;10.50;99.90;;;;;;5072541;28;19908;-45
2022/04/14 02:46:33;;;;;;;;;;;10.50;99.90;;;;;;5072477;28;19912;-45
2022/04/14 02:48:58;;;;;;;;;;;10.50;99.90;;;;;;5071566;28;20047;-44
2022/04/14 02:51:24;;;;;;;;;;;10.40;99.90;;;;;;5072522;28;20178;-45
2022/04/14 02:53:49;;;;;;;;;;;10.40;99.90;;;;;;5072414;28;19959;-44
2022/04/14 02:56:15;;;;;;;;;;;10.30;99.90;;;;;;5071714;28;20398;-45
2022/04/14 02:58:40;;;;;;;;;;;10.30;99.90;;;;;;5072425;28;20371;-44
2022/04/14 03:01:06;;;;;;;;;;;10.30;99.90;;;;;;5072354;28;20379;-43
2022/04/14 03:03:31;;;;;;;;;;;10.20;99.90;;;;;;5071394;28;20283;-43
2022/04/14 03:05:56;;;;;;;;;;;10.10;99.90;;;;;;5072320;28;19909;-48
2022/04/14 03:08:22;;;;;;;;;;;10.10;99.90;;;;;;5072324;28;19909;-44
2022/04/14 03:10:47;;;;;;;;;;;10.10;99.90;;;;;;5071616;28;19912;-46
2022/04/14 03:13:13;;;;;;;;;;;10.10;99.90;;;;;;5072186;28;19912;-42
2022/04/14 03:15:38;;;;;;;;;;;10.20;99.90;;;;;;5072283;28;19908;-44
2022/04/14 03:18:05;;;;;;;;;;;10.10;99.90;;;;;;5071228;28;20003;-45
2022/04/14 03:20:31;;;;;;;;;;;10.10;99.90;;;;;;5072317;28;19991;-42
2022/04/14 03:22:56;;;;;;;;;;;10.10;99.90;;;;;;5072248;28;20019;-44
2022/04/14 03:25:22;;;;;;;;;;;10.10;99.90;;;;;;5071319;28;20386;-43
2022/04/14 03:27:47;;;;;;;;;;;10.20;99.90;;;;;;5072211;28;19912;-45
2022/04/14 03:30:13;;;;;;;;;;;10.10;99.90;;;;;;5072068;28;19915;-43
2022/04/14 03:32:45;;;;;;;;;;;10.10;99.90;;;;;;5071015;28;20014;-45
2022/04/14 03:35:11;;;;;;;;;;;10.10;99.90;;;;;;5071960;28;20368;-44
2022/04/14 03:37:38;;;;;;;;;;;10.10;99.90;;;;;;5072314;28;19998;-44
2022/04/14 03:40:05;;;;;;;;;;;10.10;99.90;;;;;;5071991;28;19908;-43
2022/04/14 03:42:30;;;;;;;;;;;10.10;99.90;;;;;;5075565;28;20427;-43
2022/04/14 03:44:57;;;;;;;;;;;10.10;99.90;;;;;;5074777;28;19944;-43
2022/04/14 03:47:23;;;;;;;;;;;10.10;99.90;;;;;;5075453;28;20077;-43
2022/04/14 03:49:49;;;;;;;;;;;10.00;99.90;;;;;;5075464;28;19944;-43
2022/04/14 03:52:14;;;;;;;;;;;10.00;99.90;;;;;;5074614;28;20105;-45
2022/04/14 03:54:40;;;;;;;;;;;10.00;99.90;;;;;;5075473;28;20063;-44
2022/04/14 03:57:05;;;;;;;;;;;10.10;99.90;;;;;;5075536;28;19913;-44
2022/04/14 03:59:31;;;;;;;;;;;10.00;99.90;;;;;;5074599;28;19909;-45
2022/04/14 04:01:57;;;;;;;;;;;10.00;99.90;;;;;;5075197;28;19910;-45
2022/04/14 04:04:23;;;;;;;;;;;10.00;99.90;;;;;;5075115;28;19913;-47
2022/04/14 04:06:48;;;;;;;;;;;10.00;99.90;;;;;;5074459;28;19962;-44
2022/04/14 04:09:13;;;;;;;;;;;10.00;99.90;;;;;;5075160;28;20502;-45
2022/04/14 04:11:39;;;;;;;;;;;10.00;99.90;;;;;;5075138;28;20390;-43
2022/04/14 04:14:04;;;;;;;;;;;10.10;99.90;;;;;;5074170;28;19969;-44
2022/04/14 04:16:30;;;;;;;;;;;10.10;99.90;;;;;;5075009;28;20391;-43
2022/04/14 04:18:55;;;;;;;;;;;10.10;99.90;;;;;;5074799;28;20021;-43
2022/04/14 04:21:21;;;;;;;;;;;10.10;99.90;;;;;;5073595;28;19909;-43
2022/04/14 04:23:46;;;;;;;;;;;10.10;99.90;;;;;;5074072;28;20427;-43
2022/04/14 04:26:12;;;;;;;;;;;10.10;99.90;;;;;;5073840;28;19916;-45
2022/04/14 04:28:37;;;;;;;;;;;10.10;99.90;;;;;;5073367;28;19931;-44
2022/04/14 04:31:03;;;;;;;;;;;10.10;99.90;;;;;;5073608;28;19909;-45
2022/04/14 04:33:28;;;;;;;;;;;10.10;99.90;;;;;;5073574;28;19921;-44
2022/04/14 04:35:54;;;;;;;;;;;10.00;99.90;;;;;;5073098;28;19909;-43
2022/04/14 04:38:20;;;;;;;;;;;9.90;99.90;;;;;;5073750;28;20410;-44
2022/04/14 04:40:45;;;;;;;;;;;9.80;99.90;;;;;;5073628;28;19912;-44
2022/04/14 04:43:14;;;;;;;;;;;9.80;99.90;;;;;;5072768;28;20316;-46
2022/04/14 04:45:40;;;;;;;;;;;9.60;99.90;;;;;;5073477;28;19908;-43
2022/04/14 04:48:05;;;;;;;;;;;9.60;99.90;;;;;;5072755;28;20275;-47
2022/04/14 04:50:31;;;;;;;;;;;9.60;99.90;;;;;;5073591;28;19909;-44
2022/04/14 04:52:57;;;;;;;;;;;9.60;99.90;;;;;;5073312;28;20331;-49
2022/04/14 04:55:22;;;;;;;;;;;9.60;99.90;;;;;;5072654;28;20336;-43
2022/04/14 04:57:47;;;;;;;;;;;9.60;99.90;;;;;;5073241;28;20349;-44
2022/04/14 05:00:13;;;;;;;;;;;9.60;99.90;;;;;;5073179;28;19909;-45
2022/04/14 05:02:39;;;;;;;;;;;9.60;99.90;;;;;;5072415;28;19909;-44
2022/04/14 05:05:04;;;;;;;;;;;9.50;99.90;;;;;;5073095;28;20326;-44
2022/04/14 05:07:30;;;;;;;;;;;9.50;99.90;;;;;;5072760;28;19931;-48
2022/04/14 05:09:55;;;;;;;;;;;9.40;99.90;;;;;;5072283;28;20046;-46
2022/04/14 05:12:21;;;;;;;;;;;9.30;99.90;;;;;;5072856;28;19909;-45
2022/04/14 05:14:46;;;;;;;;;;;9.20;99.90;;;;;;5072926;28;19916;-44
2022/04/14 05:17:12;;;;;;;;;;;9.10;99.90;;;;;;5072012;28;20344;-43
2022/04/14 05:19:37;;;;;;;;;;;9.10;99.90;;;;;;5072765;28;19920;-45
2022/04/14 05:22:02;;;;;;;;;;;9.20;99.90;;;;;;5071455;28;19912;-45
2022/04/14 05:24:31;;;;;;;;;;;9.20;99.90;;;;;;5071846;28;19916;-44
2022/04/14 05:26:57;;;;;;;;;;;9.30;99.90;;;;;;5072787;28;19948;-43
2022/04/14 05:29:22;;;;;;;;;;;9.30;99.90;;;;;;5073731;28;20375;-43
2022/04/14 05:31:48;;;;;;;;;;;9.40;99.90;;;;;;5079631;28;20011;-45
2022/04/14 05:34:13;;;;;;;;;;;9.40;99.90;;;;;;5074858;28;19923;-44
2022/04/14 05:36:39;;;;;;;;;;;9.30;99.90;;;;;;5072438;28;19912;-43
2022/04/14 05:39:04;;;;;;;;;;;9.40;99.90;;;;;;5072403;28;19908;-43
2022/04/14 05:41:29;;;;;;;;;;;9.40;99.90;;;;;;5073313;28;19997;-43
2022/04/14 05:43:56;;;;;;;;;;;9.50;99.90;;;;;;5073171;28;19908;-43
2022/04/14 05:46:22;;;;;;;;;;;9.50;99.90;;;;;;5072594;28;19931;-43
2022/04/14 05:48:48;;;;;;;;;;;9.60;99.90;;;;;;5073116;28;20351;-44
2022/04/14 05:51:14;;;;;;;;;;;9.60;99.90;;;;;;5073181;28;20378;-44
2022/04/14 05:53:39;;;;;;;;;;;9.60;99.90;;;;;;5081747;28;21397;-44
2022/04/14 05:56:05;;;;;;;;;;;9.70;99.90;;;;;;5080640;28;19908;-44
2022/04/14 05:58:30;;;;;;;;;;;9.80;99.90;;;;;;5079096;28;19916;-45
2022/04/14 06:00:56;;;;;;;;;;;9.90;99.90;;;;;;5082164;28;19916;-44
2022/04/14 06:03:21;;;;;;;;;;;9.90;99.90;;;;;;5079162;28;19908;-43
2022/04/14 06:05:47;;;;;;;;;;;9.90;99.90;;;;;;5081039;28;20038;-44
2022/04/14 06:08:12;;;;;;;;;;;10.00;99.90;;;;;;5080941;28;19951;-43
2022/04/14 06:10:38;;;;;;;;;;;10.10;99.90;;;;;;5080195;28;19915;-45
2022/04/14 06:13:04;;;;;;;;;;;10.20;99.90;;;;;;5080955;28;20370;-44
2022/04/14 06:15:31;;;;;;;;;;;10.30;99.90;;;;;;5080237;28;20290;-44
2022/04/14 06:17:57;;;;;;;;;;;10.30;99.90;;;;;;5080361;28;19912;-46
2022/04/14 06:20:22;;;;;;;;;;;10.40;99.90;;;;;;5080755;28;19974;-47
2022/04/14 06:22:48;;;;;;;;;;;10.50;99.90;;;;;;5080170;28;19977;-46
2022/04/14 06:25:14;;;;;;;;;;;10.60;99.90;;;;;;5080548;28;19915;-43
2022/04/14 06:27:43;;;;;;;;;;;10.70;99.90;;;;;;5080664;28;20918;-44
2022/04/14 06:30:10;;;;;;;;;;;10.80;99.90;;;;;;5080264;28;19999;-45
2022/04/14 06:32:36;;;;;;;;;;;10.80;99.90;;;;;;5079809;28;19924;-44
2022/04/14 06:35:03;;;;;;;;;;;10.90;99.90;;;;;;5080885;28;20283;-43
2022/04/14 06:37:28;;;;;;;;;;;11.00;99.90;;;;;;5079103;28;19908;-44
2022/04/14 06:39:53;;;;;;;;;;;11.00;99.90;;;;;;5079117;28;19962;-48
2022/04/14 06:42:22;;;;;;;;;;;11.10;99.90;;;;;;5079046;28;19913;-44
2022/04/14 06:44:47;;;;;;;;;;;11.20;99.90;;;;;;5079162;28;20311;-44
2022/04/14 06:47:13;;;;;;;;;;;11.20;99.90;;;;;;5080418;28;19941;-45
2022/04/14 06:49:38;;;;;;;;;;;11.30;99.90;;;;;;5080206;28;20476;-44
2022/04/14 06:52:04;;;;;;;;;;;11.40;99.90;;;;;;5079284;28;19973;-44
2022/04/14 06:54:29;;;;;;;;;;;11.50;99.90;;;;;;5080532;28;20409;-45
2022/04/14 06:56:55;;;;;;;;;;;11.50;99.90;;;;;;5080066;28;20386;-45
2022/04/14 06:59:20;;;;;;;;;;;11.60;99.90;;;;;;5078985;28;19916;-46
2022/04/14 07:01:46;;;;;;;;;;;11.70;99.90;;;;;;5080856;28;19964;-47
2022/04/14 07:04:11;;;;;;;;;;;11.80;99.90;;;;;;5080074;28;19999;-43
2022/04/14 07:06:37;;;;;;;;;;;11.80;99.90;;;;;;5079656;28;19920;-44
2022/04/14 07:09:02;;;;;;;;;;;11.90;99.90;;;;;;5080411;28;20245;-44
2022/04/14 07:11:27;;;;;;;;;;;12.00;99.90;;;;;;5079327;28;20355;-45
2022/04/14 07:13:53;;;;;;;;;;;12.10;99.90;;;;;;5080285;28;19969;-44
2022/04/14 07:16:18;;;;;;;;;;;12.10;99.90;;;;;;5083220;28;19912;-43
2022/04/14 07:18:44;;;;;;;;;;;12.20;99.90;;;;;;5082798;28;19915;-45
2022/04/14 07:21:10;;;;;;;;;;;12.20;99.90;;;;;;5084561;28;20379;-46
2022/04/14 07:23:36;;;;;;;;;;;12.30;99.90;;;;;;5083500;28;19939;-45
2022/04/14 07:26:01;;;;;;;;;;;12.30;99.90;;;;;;5082709;28;19950;-46
2022/04/14 07:28:27;;;;;;;;;;;12.50;99.90;;;;;;5084525;28;19908;-47
2022/04/14 07:30:52;;;;;;;;;;;12.60;99.90;;;;;;5092823;28;20271;-43
2022/04/14 07:33:18;;;;;;;;;;;12.60;99.90;;;;;;5095050;28;19920;-45
2022/04/14 07:35:45;;;;;;;;;;;12.70;99.90;;;;;;5095239;28;19931;-42
2022/04/14 07:38:11;;;;;;;;;;;12.90;99.90;;;;;;5094629;28;19908;-44
2022/04/14 07:40:36;;;;;;;;;;;12.90;99.90;;;;;;5094936;28;19913;-44
2022/04/14 07:43:02;;;;;;;;;;;13.00;99.90;;;;;;5095171;28;20451;-46
2022/04/14 07:45:27;;;;;;;;;;;13.10;99.90;;;;;;5094292;28;19908;-44
2022/04/14 07:47:53;;;;;;;;;;;13.20;99.90;;;;;;5095211;28;19920;-46
2022/04/14 07:50:19;;;;;;;;;;;13.30;99.90;;;;;;5095152;28;19915;-44
2022/04/14 07:52:52;;;;;;;;;;;13.40;99.90;;;;;;5075313;28;20027;-47
2022/04/14 07:55:18;;;;;;;;;;;13.50;99.90;;;;;;5074827;28;19920;-43
2022/04/14 07:57:43;;;;;;;;;;;13.60;99.90;;;;;;5074461;28;19915;-45
2022/04/14 08:00:09;;;;;;;;;;;13.70;99.90;;;;;;5073964;28;19909;-46
2022/04/14 08:02:35;;;;;;;;;;;13.80;99.90;;;;;;5092318;28;20006;-43
2022/04/14 08:05:00;;;;;;;;;;;13.80;99.90;;;;;;5094537;28;19908;-47
2022/04/14 08:07:25;;;;;;;;;;;14.00;99.90;;;;;;5094403;28;20426;-44
2022/04/14 08:09:51;;;;;;;;;;;14.00;99.90;;;;;;5085535;28;20267;-47
2022/04/14 08:12:16;;;;;;;;;;;14.10;99.90;;;;;;5073670;28;20321;-44
2022/04/14 08:14:42;;;;;;;;;;;14.20;99.90;;;;;;5074331;28;19935;-44
2022/04/14 08:17:07;;;;;;;;;;;14.30;99.90;;;;;;5074509;28;19908;-45
2022/04/14 08:19:34;;;;;;;;;;;14.40;99.90;;;;;;5074481;28;19948;-48
2022/04/14 08:22:00;;;;;;;;;;;14.50;99.90;;;;;;5074453;28;19962;-45
2022/04/14 08:24:26;;;;;;;;;;;14.50;99.90;;;;;;5074055;28;19916;-45
2022/04/14 08:26:52;;;;;;;;;;;14.70;99.90;;;;;;5073224;28;20348;-44
2022/04/14 08:29:17;;;;;;;;;;;14.70;99.90;;;;;;5077810;28;19919;-44
2022/04/14 08:31:43;;;;;;;;;;;14.80;99.90;;;;;;5094006;28;19908;-43
2022/04/14 08:34:09;;;;;;;;;;;14.80;99.90;;;;;;5093560;28;19916;-44
2022/04/14 08:36:35;;;;;;;;;;;15.00;99.90;;;;;;5094125;28;19909;-44
2022/04/14 08:39:00;;;;;;;;;;;15.10;99.90;;;;;;5093195;28;19916;-45
2022/04/14 08:41:28;;;;;;;;;;;15.20;99.90;;;;;;5092484;28;20028;-45
2022/04/14 08:44:05;;;;;;;;;;;15.30;99.90;;;;;;5094266;28;19915;-45
2022/04/14 08:46:30;;;;;;;;;;;15.40;99.90;;;;;;5093979;28;20282;-48
2022/04/14 08:48:59;;;;;;;;;;;15.50;99.90;;;;;;5093014;28;20381;-43
2022/04/14 08:51:29;;;;;;;;;;;15.50;99.90;;;;;;5073511;28;20363;-47
2022/04/14 08:53:55;;;;;;;;;;;15.60;99.90;;;;;;5073802;28;19924;-44
2022/04/14 08:56:21;;;;;;;;;;;15.60;99.90;;;;;;5072616;28;20049;-47
2022/04/14 08:58:47;;;;;;;;;;;15.70;99.90;;;;;;5073664;28;19919;-44
2022/04/14 09:01:13;;;;;;;;;;;15.70;99.90;;;;;;5074372;28;20295;-44
2022/04/14 09:03:39;;;;;;;;;;;15.80;99.90;;;;;;5072518;28;19916;-47
2022/04/14 09:06:04;;;;;;;;;;;15.90;99.90;;;;;;5078245;28;19916;-45
2022/04/14 09:08:30;;;;;;;;;;;16.10;99.90;;;;;;5079263;28;19912;-44
2022/04/14 09:10:55;;;;;;;;;;;16.20;99.90;;;;;;5073444;28;19909;-45
2022/04/14 09:13:21;;;;;;;;;;;16.30;99.90;;;;;;5073097;28;20005;-45
2022/04/14 09:15:47;;;;;;;;;;;16.40;99.90;;;;;;5072547;28;19912;-45
2022/04/14 09:18:13;;;;;;;;;;;16.50;99.90;;;;;;5082178;28;19969;-44
2022/04/14 09:20:40;;;;;;;;;;;16.60;99.90;;;;;;5093168;28;19954;-45
2022/04/14 09:23:26;;;;;;;;;;;16.70;99.90;;;;;;5092668;28;20275;-44
2022/04/14 09:26:06;;;;;;;;;;;16.80;99.90;;;;;;5083527;28;19965;-46
2022/04/14 09:28:32;;;;;;;;;;;16.90;99.90;;;;;;5079954;28;19912;-45
2022/04/14 09:30:57;;;;;;;;;;;17.00;99.90;;;;;;5080549;28;19914;-48
2022/04/14 09:33:23;;;;;;;;;;;17.00;99.90;;;;;;5074557;28;19974;-46
2022/04/14 09:36:04;;;;;;;;;;;16.90;99.90;;;;;;5092029;28;19913;-44
2022/04/14 09:38:47;;;;;;;;;;;16.80;99.90;;;;;;5091371;28;19915;-44
2022/04/14 09:41:25;;;;;;;;;;;16.80;99.90;;;;;;5092997;28;19909;-44
2022/04/14 09:43:56;;;;;;;;;;;16.70;99.90;;;;;;5083843;28;19913;-47
2022/04/14 09:46:21;;;;;;;;;;;16.70;99.90;;;;;;5088199;28;19912;-46
2022/04/14 09:49:02;;;;;;;;;;;16.70;99.90;;;;;;5092988;28;19958;-49
2022/04/14 09:51:28;;;;;;;;;;;16.80;99.90;;;;;;5091833;28;19961;-47
2022/04/14 09:54:04;;;;;;;;;;;16.80;99.90;;;;;;5091943;28;19920;-45
2022/04/14 09:56:46;;;;;;;;;;;16.90;99.90;;;;;;5092693;28;19915;-43
2022/04/14 09:59:13;;;;;;;;;;;16.90;99.90;;;;;;5091989;28;19912;-45
2022/04/14 10:01:39;;;;;;;;;;;16.90;99.90;;;;;;5092391;28;20310;-49
2022/04/14 10:04:05;;;;;;;;;;;16.90;99.90;;;;;;5079992;28;19916;-46
2022/04/14 10:06:31;;;;;;;;;;;17.00;99.70;;;;;;5090840;28;19912;-46
2022/04/14 10:08:56;;;;;;;;;;;17.10;99.90;;;;;;5092638;28;19912;-46
2022/04/14 10:11:25;;;;;;;;;;;17.00;99.90;;;;;;5092275;28;20347;-45
2022/04/14 10:13:50;;;;;;;;;;;17.00;98.60;;;;;;5090760;28;19920;-46
2022/04/14 10:16:20;;;;;;;;;;;17.00;97.60;;;;;;5087570;28;19912;-44
2022/04/14 10:18:46;;;;;;;;;;;17.00;95.40;;;;;;5080576;28;19912;-45
2022/04/14 10:21:13;;;;;;;;;;;17.10;96.40;;;;;;5071966;28;19920;-45
2022/04/14 10:23:38;;;;;;;;;;;17.10;98.40;;;;;;5091397;28;20496;-49
2022/04/14 10:26:06;;;;;;;;;;;17.10;98.10;;;;;;5091906;28;19987;-45
2022/04/14 10:28:31;;;;;;;;;;;17.10;99.90;;;;;;5089812;28;19908;-45
2022/04/14 10:30:57;;;;;;;;;;;17.00;98.70;;;;;;5079002;28;19912;-43
2022/04/14 10:33:23;;;;;;;;;;;16.90;92.40;;;;;;5089946;28;19927;-46
2022/04/14 10:35:49;;;;;;;;;;;16.80;95.10;;;;;;5078504;28;20267;-46
2022/04/14 10:38:19;;;;;;;;;;;16.90;94.60;;;;;;5071291;28;20041;-43
2022/04/14 10:40:49;;;;;;;;;;;17.30;93.70;;;;;;5070935;28;19915;-46
2022/04/14 10:43:18;;;;;;;;;;;17.60;99.40;;;;;;5072003;28;19913;-47
2022/04/14 10:45:47;;;;;;;;;;;17.80;95.00;;;;;;5072754;28;19916;-43
2022/04/14 10:48:25;;;;;;;;;;;18.10;92.40;;;;;;5071158;28;19947;-43
2022/04/14 10:51:11;;;;;;;;;;;18.30;96.10;;;;;;5075894;28;20279;-45
2022/04/14 10:53:46;;;;;;;;;;;18.30;91.90;;;;;;5075611;28;20371;-46
2022/04/14 10:56:32;;;;;;;;;;;18.30;85.50;;;;;;5093914;28;19912;-45
2022/04/14 10:58:57;;;;;;;;;;;18.20;87.60;;;;;;5095955;28;19912;-45
2022/04/14 11:01:41;;;;;;;;;;;17.90;86.60;;;;;;5095172;28;19920;-46
2022/04/14 11:04:24;;;;;;;;;;;17.60;90.70;;;;;;5094715;28;20031;-44
2022/04/14 11:06:54;;;;;;;;;;;17.30;93.10;;;;;;5075835;28;19908;-46
2022/04/14 11:09:38;;;;;;;;;;;17.50;93.20;;;;;;5074610;28;19951;-49
2022/04/14 11:12:03;;;;;;;;;;;17.40;98.10;;;;;;5075663;28;20007;-47
2022/04/14 11:14:33;;;;;;;;;;;17.20;91.60;;;;;;5077019;28;20058;-44
2022/04/14 11:16:59;;;;;;;;;;;17.40;98.90;;;;;;5095163;28;19931;-48
2022/04/14 11:19:24;;;;;;;;;;;17.80;92.90;;;;;;5095551;28;20011;-46
2022/04/14 11:22:00;;;;;;;;;;;18.10;85.60;;;;;;5095716;28;19908;-43
2022/04/14 11:24:34;;;;;;;;;;;18.20;77.10;;;;;;5079705;28;19909;-44
2022/04/14 11:27:21;;;;;;;;;;;18.00;74.70;;;;;;5075273;28;19913;-45
2022/04/14 11:29:47;;;;;;;;;;;17.80;81.50;;;;;;5074431;28;19915;-44
2022/04/14 11:32:13;;;;;;;;;;;17.50;84.90;;;;;;5075047;28;19926;-45
2022/04/14 11:34:40;;;;;;;;;;;17.60;88.30;;;;;;5076239;28;19925;-45
2022/04/14 11:37:25;;;;;;;;;;;17.90;87.50;;;;;;5075198;28;19972;-45
2022/04/14 11:40:10;;;;;;;;;;;18.10;84.40;;;;;;5075445;28;19952;-45
2022/04/14 11:42:35;;;;;;;;;;;18.20;82.30;;;;;;5075377;28;19916;-45
2022/04/14 11:45:01;;;;;;;;;;;18.40;85.60;;;;;;5094757;28;19908;-46
2022/04/14 11:47:27;;;;;;;;;;;18.30;91.10;;;;;;5095370;28;19914;-45
2022/04/14 11:49:53;;;;;;;;;;;18.00;81.30;;;;;;5095720;28;19908;-44
2022/04/14 11:52:20;;;;;;;;;;;17.60;81.10;;;;;;5095318;28;20244;-46
2022/04/14 11:54:46;;;;;;;;;;;17.50;81.90;;;;;;5092817;28;19928;-45
2022/04/14 11:57:13;;;;;;;;;;;17.50;85.80;;;;;;5094797;28;19967;-45
2022/04/14 11:59:40;;;;;;;;;;;17.50;85.00;;;;;;5095507;28;20006;-45
2022/04/14 12:02:07;;;;;;;;;;;17.70;91.00;;;;;;5094813;28;19908;-46
2022/04/14 12:04:35;;;;;;;;;;;18.10;92.50;;;;;;5079009;28;19916;-44
2022/04/14 12:07:00;;;;;;;;;;;18.40;83.30;;;;;;5075255;28;19920;-49
2022/04/14 12:09:25;;;;;;;;;;;18.30;79.80;;;;;;5074980;28;19913;-44
2022/04/14 12:11:52;;;;;;;;;;;18.20;73.80;;;;;;5080873;28;19912;-44
2022/04/14 12:14:18;;;;;;;;;;;18.30;81.40;;;;;;5095236;28;20374;-45
2022/04/14 12:16:47;;;;;;;;;;;18.40;82.90;;;;;;5094889;28;19908;-45
2022/04/14 12:19:12;;;;;;;;;;;18.30;80.70;;;;;;5094791;28;19908;-45
2022/04/14 12:21:38;;;;;;;;;;;18.60;82.10;;;;;;5093124;28;19916;-45
2022/04/14 12:24:03;;;;;;;;;;;18.90;85.80;;;;;;5095060;28;19912;-45
2022/04/14 12:26:30;;;;;;;;;;;19.20;80.50;;;;;;5094190;28;19909;-45
2022/04/14 12:28:55;;;;;;;;;;;19.20;77.60;;;;;;5095010;28;19919;-45
2022/04/14 12:31:21;;;;;;;;;;;19.10;70.80;;;;;;5092533;28;20282;-45
2022/04/14 12:33:59;;;;;;;;;;;18.80;69.70;;;;;;5094152;28;19924;-44
2022/04/14 12:36:34;;;;;;;;;;;18.40;70.20;;;;;;5094570;28;19912;-45
2022/04/14 12:39:02;;;;;;;;;;;18.40;77.40;;;;;;5094839;28;19920;-45
2022/04/14 12:41:32;;;;;;;;;;;18.60;74.20;;;;;;5078473;28;20020;-45
2022/04/14 12:43:58;;;;;;;;;;;18.80;73.40;;;;;;5074761;28;19912;-46
2022/04/14 12:46:28;;;;;;;;;;;18.90;75.60;;;;;;5073684;28;20298;-44
2022/04/14 12:49:00;;;;;;;;;;;18.70;71.20;;;;;;5074244;28;20375;-45
2022/04/14 12:51:37;;;;;;;;;;;19.00;77.60;;;;;;5075104;28;19966;-45
2022/04/14 12:54:03;;;;;;;;;;;19.30;69.60;;;;;;5072743;28;20329;-45
2022/04/14 12:56:29;;;;;;;;;;;19.20;65.30;;;;;;5073221;28;19954;-46
2022/04/14 12:59:13;;;;;;;;;;;19.20;71.70;;;;;;5073492;28;19995;-45
2022/04/14 13:01:45;;;;;;;;;;;19.20;67.80;;;;;;5080603;28;20003;-44
2022/04/14 13:04:10;;;;;;;;;;;19.20;69.30;;;;;;5088074;28;19919;-46
2022/04/14 13:06:36;;;;;;;;;;;19.40;66.00;;;;;;5093865;28;20266;-46
2022/04/14 13:09:17;;;;;;;;;;;19.40;67.80;;;;;;5093776;28;19926;-44
2022/04/14 13:11:46;;;;;;;;;;;19.40;66.10;;;;;;5078860;28;19920;-48
2022/04/14 13:14:30;;;;;;;;;;;19.40;63.90;;;;;;5072905;28;19923;-46
2022/04/14 13:16:57;;;;;;;;;;;19.20;68.70;;;;;;5073979;28;19908;-47
2022/04/14 13:19:23;;;;;;;;;;;19.00;67.00;;;;;;5081656;28;19919;-44
2022/04/14 13:21:49;;;;;;;;;;;18.70;70.80;;;;;;5093528;28;20023;-44
2022/04/14 13:24:14;;;;;;;;;;;18.70;71.10;;;;;;5093883;28;20287;-44
2022/04/14 13:26:40;;;;;;;;;;;18.60;63.40;;;;;;5093820;28;19972;-43
2022/04/14 13:29:07;;;;;;;;;;;18.60;72.00;;;;;;5087578;28;20344;-45
2022/04/14 13:31:37;;;;;;;;;;;18.60;72.40;;;;;;5073130;28;20015;-45
2022/04/14 13:34:03;;;;;;;;;;;18.50;69.10;;;;;;5073346;28;20272;-44
2022/04/14 13:36:28;;;;;;;;;;;18.30;65.40;;;;;;5072605;28;19908;-47
2022/04/14 13:38:53;;;;;;;;;;;18.30;71.30;;;;;;5074367;28;19946;-45
2022/04/14 13:41:19;;;;;;;;;;;18.20;69.00;;;;;;5073389;28;19908;-43
2022/04/14 13:43:44;;;;;;;;;;;18.10;69.10;;;;;;5072933;28;20550;-44
2022/04/14 13:46:10;;;;;;;;;;;18.00;69.30;;;;;;5073364;28;19909;-44
2022/04/14 13:48:35;;;;;;;;;;;18.10;68.70;;;;;;5072717;28;20024;-47
2022/04/14 13:51:01;;;;;;;;;;;17.90;71.20;;;;;;5092564;28;19908;-45
2022/04/14 13:53:27;;;;;;;;;;;17.80;70.70;;;;;;5093125;28;19927;-44
2022/04/14 13:55:53;;;;;;;;;;;17.80;68.70;;;;;;5093495;28;20045;-43
2022/04/14 13:58:21;;;;;;;;;;;17.80;70.20;;;;;;5092722;28;19974;-45
2022/04/14 14:00:47;;;;;;;;;;;17.80;75.40;;;;;;5091541;28;19916;-46
2022/04/14 14:03:13;;;;;;;;;;;17.80;73.40;;;;;;5093093;28;19915;-46
2022/04/14 14:05:38;;;;;;;;;;;17.80;71.80;;;;;;5092396;28;19916;-45
2022/04/14 14:08:04;;;;;;;;;;;17.80;71.20;;;;;;5093043;28;19982;-47
2022/04/14 14:10:29;;;;;;;;;;;17.80;75.80;;;;;;5078259;28;19912;-44
2022/04/14 14:12:55;;;;;;;;;;;17.70;71.40;;;;;;5072139;28;19919;-43
2022/04/14 14:15:20;;;;;;;;;;;17.80;77.60;;;;;;5072690;28;20003;-44
2022/04/14 14:17:46;;;;;;;;;;;17.90;70.20;;;;;;5077693;28;19958;-47